KDOV

Dover AFB Airport

Dover, Delaware, USA
METAR KDOV 211456Z AUTO 30023G36KT 10SM CLR M09/M22 A3020 RMK AO2 PK WND 29037/15 SLP230 T10911225 52031 $
Observed Flight Rules
Jan-21 @ 14:56 UTC (60 minutes ago) Visual Flight Rules
Wind Visibility Clouds
300° at 23 knots
 Gusting to 36 knots
10 miles
  • Clear skies
Temperatures Readings
Current -9°C / 16°F
Dewpoint -23°C / -9°F
Humidity 31%
Altimeter 30.2" Hg
Pressure 1023 hPa
Elevation 9
METAR KDOV 211456Z AUTO 30023G36KT 10SM CLR M09/M22 A3020 RMK AO2 PK WND 29037/15 SLP230 T10911225 52031 $
Observed Flight Rules
Jan-21 @ 14:56 UTC
(60 minutes ago)
VFR
Wind Visibility
300° at 23 knots
 Gusting to 36 knots
10 miles
Clouds
  • Clear skies
Temperature Dewpoint
-9°C / 16°F -23°C / -9°F
Humidity Altimeter Pressure
31% 30.2" Hg 1023 hPa